createdAt,value
2023-05-04T00:00:33.080Z,7.85
2023-05-04T00:03:44.514Z,8.18
2023-05-04T00:06:48.449Z,6.07
2023-05-04T00:09:54.700Z,8.95
2023-05-04T00:12:58.656Z,8.25
2023-05-04T00:16:03.151Z,5.80
2023-05-04T00:19:07.103Z,12.70
2023-05-04T00:22:18.565Z,9.02
2023-05-04T00:25:23.035Z,8.63
2023-05-04T00:28:27.673Z,10.55
2023-05-04T00:31:31.879Z,6.35
2023-05-04T00:34:42.520Z,10.90
2023-05-04T00:37:49.399Z,8.70
2023-05-04T00:40:53.584Z,8.95
2023-05-04T00:44:00.519Z,8.27
2023-05-04T00:47:04.798Z,11.00
2023-05-04T00:50:10.260Z,9.25
2023-05-04T00:56:55.419Z,9.48
2023-05-04T01:00:04.275Z,8.23
2023-05-04T01:03:11.315Z,12.27
2023-05-04T01:09:48.275Z,10.57
2023-05-04T01:13:08.478Z,13.35
2023-05-04T01:16:13.102Z,14.70
2023-05-04T01:19:17.679Z,13.77
2023-05-04T01:22:22.823Z,14.50
2023-05-04T01:25:52.910Z,8.98
2023-05-04T01:29:19.969Z,12.68
2023-05-04T01:32:28.786Z,8.82
2023-05-04T01:35:35.988Z,13.77
2023-05-04T01:38:40.411Z,9.52
2023-05-04T01:41:44.978Z,7.90
2023-05-04T01:44:49.885Z,8.50
2023-05-04T01:48:00.585Z,9.88
2023-05-04T01:51:05.985Z,9.27
2023-05-04T01:57:16.863Z,13.85
2023-05-04T02:00:20.972Z,13.70
2023-05-04T02:03:25.778Z,16.63
2023-05-04T02:06:30.701Z,9.40
2023-05-04T02:09:37.929Z,10.25
2023-05-04T02:12:43.928Z,9.82
2023-05-04T02:15:51.049Z,13.40
2023-05-04T02:18:57.763Z,12.65
2023-05-04T02:22:30.968Z,15.38
2023-05-04T02:25:35.827Z,14.68
2023-05-04T02:28:46.517Z,10.43
2023-05-04T02:31:50.846Z,7.70
2023-05-04T02:35:01.034Z,14.57
2023-05-04T02:38:07.886Z,16.88
2023-05-04T02:41:12.472Z,13.50
2023-05-04T02:44:19.010Z,11.00
2023-05-04T02:47:23.834Z,10.85
2023-05-04T02:50:28.095Z,9.68
2023-05-04T02:53:32.765Z,17.38
2023-05-04T02:56:38.831Z,9.60
2023-05-04T02:59:43.053Z,12.55
2023-05-04T03:02:47.222Z,9.65
2023-05-04T03:05:54.699Z,11.85
2023-05-04T03:08:59.632Z,9.23
2023-05-04T03:12:05.258Z,9.40
2023-05-04T03:15:17.687Z,9.38
2023-05-04T03:35:44.639Z,10.20
2023-05-04T03:42:18.447Z,9.52
2023-05-04T03:45:29.427Z,10.27
2023-05-04T03:48:40.295Z,13.15
2023-05-04T03:51:50.291Z,22.70
2023-05-04T03:55:09.085Z,11.23
2023-05-04T03:58:17.397Z,18.83
2023-05-04T04:01:37.793Z,12.35
2023-05-04T04:10:35.923Z,17.45
2023-05-04T04:15:54.810Z,14.63
2023-05-04T04:18:54.510Z,12.65
2023-05-04T04:22:07.239Z,13.10
2023-05-04T04:25:14.493Z,16.92
2023-05-04T04:28:55.375Z,15.70
2023-05-04T04:31:50.406Z,24.25
2023-05-04T04:34:57.562Z,12.48
2023-05-04T04:38:04.407Z,5.90
2023-05-04T04:41:08.977Z,15.95
2023-05-04T04:44:17.693Z,16.30
2023-05-04T04:47:28.514Z,31.17
2023-05-04T04:50:33.241Z,8.52
2023-05-04T04:53:37.960Z,12.20
2023-05-04T04:56:47.124Z,18.13
2023-05-04T04:59:57.750Z,12.57
2023-05-04T05:03:02.297Z,15.57
2023-05-04T05:06:09.993Z,9.85
2023-05-04T05:09:14.409Z,38.75
2023-05-04T05:12:20.707Z,11.73
2023-05-04T05:15:25.085Z,6.88
2023-05-04T05:18:30.239Z,15.18
2023-05-04T05:21:48.814Z,10.65
2023-05-04T05:24:53.619Z,7.95
2023-05-04T05:27:57.857Z,8.27
2023-05-04T05:55:07.714Z,8.45
2023-05-04T05:58:12.413Z,14.55
2023-05-04T06:01:17.311Z,8.75
2023-05-04T06:04:21.631Z,9.48
2023-05-04T06:07:31.592Z,14.43
2023-05-04T06:10:37.962Z,12.90
2023-05-04T06:13:44.195Z,8.63
2023-05-04T06:16:50.741Z,10.52
2023-05-04T06:20:00.997Z,11.20
2023-05-04T06:23:08.249Z,10.93
2023-05-04T06:26:12.910Z,10.73
2023-05-04T06:29:20.645Z,13.23
2023-05-04T06:32:27.486Z,11.13
2023-05-04T06:35:34.356Z,9.00
2023-05-04T06:38:39.334Z,14.93
2023-05-04T06:41:49.248Z,9.88
2023-05-04T06:44:59.593Z,14.27
2023-05-04T06:48:06.548Z,12.45
2023-05-04T06:51:14.116Z,9.88
2023-05-04T06:54:26.522Z,10.00
2023-05-04T06:58:17.443Z,17.52
2023-05-04T07:01:25.977Z,20.25
2023-05-04T07:04:30.021Z,16.80
2023-05-04T07:07:34.933Z,16.35
2023-05-04T07:10:52.872Z,32.60
2023-05-04T07:13:57.602Z,14.27
2023-05-04T07:17:05.679Z,8.38
2023-05-04T07:20:25.801Z,19.77
2023-05-04T07:23:31.987Z,17.75
2023-05-04T07:26:36.488Z,15.75
2023-05-04T07:33:37.365Z,44.30
2023-05-04T07:36:43.921Z,13.13
2023-05-04T07:40:27.927Z,16.40
2023-05-04T07:44:21.248Z,10.68
2023-05-04T07:47:25.674Z,56.38
2023-05-04T07:50:32.280Z,14.05
2023-05-04T07:53:36.978Z,16.05
2023-05-04T07:56:41.841Z,15.15
2023-05-04T07:59:46.313Z,23.05
2023-05-04T08:02:51.044Z,19.67
2023-05-04T08:05:55.750Z,13.85
2023-05-04T08:09:00.026Z,8.70
2023-05-04T08:12:05.464Z,12.55
2023-05-04T08:15:11.204Z,13.48
2023-05-04T08:18:20.958Z,29.83
2023-05-04T08:21:28.139Z,16.95
2023-05-04T08:24:37.840Z,17.00
2023-05-04T08:27:42.100Z,22.02
2023-05-04T08:30:46.338Z,12.90
2023-05-04T08:33:50.813Z,8.82
2023-05-04T08:36:55.046Z,10.45
2023-05-04T08:43:43.701Z,12.57
2023-05-04T08:47:23.548Z,11.95
2023-05-04T08:50:35.412Z,11.40
2023-05-04T08:53:55.576Z,8.32
2023-05-04T08:57:05.173Z,15.02
2023-05-04T09:00:15.207Z,18.67
2023-05-04T09:03:22.597Z,16.75
2023-05-04T09:06:31.874Z,16.35
2023-05-04T09:09:36.283Z,16.20
2023-05-04T09:12:46.378Z,12.07
2023-05-04T09:16:00.253Z,19.25
2023-05-04T09:19:30.599Z,22.67
2023-05-04T09:22:40.740Z,19.42
2023-05-04T09:26:01.662Z,20.88
2023-05-04T09:29:20.345Z,20.42
2023-05-04T09:32:31.467Z,32.67
2023-05-04T09:35:36.369Z,30.65
2023-05-04T09:38:46.428Z,18.35
2023-05-04T09:41:53.567Z,21.85
2023-05-04T09:45:52.806Z,18.25
2023-05-04T09:49:01.219Z,16.10
2023-05-04T09:52:07.869Z,21.70
2023-05-04T09:55:17.466Z,15.50
2023-05-04T09:58:31.427Z,18.80
2023-05-04T10:01:35.510Z,17.10
2023-05-04T10:04:44.133Z,21.67
2023-05-04T10:07:48.687Z,20.73
2023-05-04T10:10:58.710Z,18.08
2023-05-04T10:14:03.580Z,36.05
2023-05-04T10:17:25.464Z,14.48
2023-05-04T10:20:51.687Z,17.40
2023-05-04T10:24:24.292Z,15.90
2023-05-04T10:27:49.703Z,11.43
2023-05-04T10:31:00.853Z,10.60
2023-05-04T10:34:07.948Z,13.32
2023-05-04T10:37:19.485Z,10.20
2023-05-04T10:40:41.713Z,7.30
2023-05-04T10:43:54.406Z,11.90
2023-05-04T10:47:23.348Z,12.15
2023-05-04T10:50:33.141Z,12.00
2023-05-04T10:53:38.104Z,20.25
2023-05-04T10:56:42.630Z,27.38
2023-05-04T11:00:00.089Z,32.17
2023-05-04T11:03:08.468Z,32.25
2023-05-04T11:06:23.964Z,26.98
2023-05-04T11:09:38.646Z,27.85
2023-05-04T11:12:44.456Z,29.90
2023-05-04T11:15:51.620Z,34.42
2023-05-04T11:18:57.022Z,30.70
2023-05-04T11:25:09.438Z,29.67
2023-05-04T11:28:14.820Z,32.67
2023-05-04T11:31:22.993Z,24.33
2023-05-04T11:34:27.566Z,24.25
2023-05-04T11:37:33.069Z,25.73
2023-05-04T11:43:47.269Z,28.15
2023-05-04T11:46:52.485Z,31.55
2023-05-04T11:49:57.280Z,30.27
2023-05-04T11:53:13.084Z,33.13
2023-05-04T11:56:23.157Z,34.08
2023-05-04T11:59:27.663Z,34.58
2023-05-04T12:02:32.382Z,31.00
2023-05-04T12:05:38.435Z,33.50
2023-05-04T12:08:44.653Z,35.40
2023-05-04T12:11:57.342Z,32.75
2023-05-04T12:15:01.664Z,40.53
2023-05-04T12:18:09.222Z,39.42
2023-05-04T12:21:14.131Z,34.33
2023-05-04T12:24:31.984Z,32.95
2023-05-04T12:27:36.781Z,36.33
2023-05-04T12:30:41.491Z,298.90
2023-05-04T12:33:48.966Z,141.68
2023-05-04T12:36:53.652Z,70.82
2023-05-04T12:39:58.371Z,63.60
2023-05-04T12:43:04.219Z,63.40
2023-05-04T12:46:09.439Z,67.15
2023-05-04T12:49:15.514Z,71.82
2023-05-04T12:52:20.199Z,72.75
2023-05-04T12:55:25.532Z,49.72
2023-05-04T12:58:30.738Z,28.63
2023-05-04T13:01:35.532Z,25.75
2023-05-04T13:04:41.596Z,24.33
2023-05-04T13:07:46.226Z,15.93
2023-05-04T13:10:51.751Z,20.73
2023-05-04T13:13:57.460Z,21.15
2023-05-04T13:17:01.920Z,16.00
2023-05-04T13:20:12.494Z,11.55
2023-05-04T13:23:17.444Z,10.65
2023-05-04T13:26:24.502Z,12.20
2023-05-04T13:29:28.840Z,14.18
2023-05-04T13:32:33.946Z,12.00
2023-05-04T13:35:38.625Z,12.43
2023-05-04T13:38:43.143Z,11.40
2023-05-04T13:41:47.700Z,13.80
2023-05-04T13:44:52.320Z,15.05
2023-05-04T13:47:59.319Z,13.32
2023-05-04T13:51:04.961Z,11.70
2023-05-04T13:57:13.775Z,10.77
2023-05-04T14:00:18.994Z,15.57
2023-05-04T14:03:30.312Z,18.70
2023-05-04T14:06:35.121Z,15.60
2023-05-04T14:09:40.137Z,18.70
2023-05-04T14:12:44.551Z,21.95
2023-05-04T14:15:49.648Z,17.20
2023-05-04T14:18:56.159Z,13.93
2023-05-04T14:22:00.730Z,31.83
2023-05-04T14:25:06.833Z,30.92
2023-05-04T14:28:11.567Z,23.77
2023-05-04T14:31:17.671Z,28.85
2023-05-04T14:34:22.850Z,24.05
2023-05-04T14:37:27.530Z,25.55
2023-05-04T14:40:35.272Z,19.35
2023-05-04T14:43:39.805Z,21.38
2023-05-04T14:46:44.272Z,20.45
2023-05-04T14:49:49.043Z,26.23
2023-05-04T14:52:53.808Z,32.70
2023-05-04T14:56:01.959Z,59.85
2023-05-04T15:02:11.523Z,65.38
2023-05-04T15:05:17.286Z,56.95
2023-05-04T15:08:23.527Z,83.00
2023-05-04T15:11:28.139Z,95.22
2023-05-04T15:14:32.512Z,95.95
2023-05-04T15:17:37.084Z,75.03
2023-05-04T15:20:41.844Z,58.95
2023-05-04T15:23:51.362Z,65.47
2023-05-04T15:27:06.399Z,47.83
2023-05-04T15:30:17.175Z,46.28
2023-05-04T15:33:29.477Z,52.30
2023-05-04T15:36:47.730Z,44.90
2023-05-04T15:40:03.719Z,47.28
2023-05-04T15:43:18.684Z,41.33
2023-05-04T15:46:33.498Z,43.75
2023-05-04T15:49:44.145Z,43.85
2023-05-04T15:52:52.230Z,47.35
2023-05-04T15:56:26.952Z,47.45
2023-05-04T15:59:41.806Z,44.35
2023-05-04T16:03:07.159Z,44.15
2023-05-04T16:09:46.816Z,48.38
2023-05-04T16:13:00.102Z,52.13
2023-05-04T16:19:52.179Z,51.80
2023-05-04T16:23:08.556Z,58.38
2023-05-04T16:26:22.684Z,50.60
2023-05-04T16:29:32.739Z,50.97
2023-05-04T16:32:45.041Z,53.72
2023-05-04T16:43:01.352Z,57.70
2023-05-04T16:46:13.350Z,47.45
2023-05-04T16:49:28.792Z,47.40
2023-05-04T16:52:48.549Z,56.15
2023-05-04T16:56:11.638Z,54.72
2023-05-04T16:59:19.989Z,54.80
2023-05-04T17:02:34.651Z,56.45
2023-05-04T17:05:48.464Z,49.07
2023-05-04T17:09:07.629Z,60.30
2023-05-04T17:12:20.839Z,66.90
2023-05-04T17:15:27.524Z,49.17
2023-05-04T17:18:40.250Z,49.45
2023-05-04T17:25:19.691Z,52.58
2023-05-04T17:28:26.755Z,53.58
2023-05-04T17:31:38.875Z,59.30
2023-05-04T17:34:50.563Z,60.28
2023-05-04T17:38:06.908Z,51.58
2023-05-04T17:41:16.201Z,56.70
2023-05-04T17:44:26.616Z,63.03
2023-05-04T17:47:35.451Z,44.67
2023-05-04T17:50:54.056Z,46.35
2023-05-04T17:54:00.637Z,48.40
2023-05-04T17:57:27.995Z,50.00
2023-05-04T18:00:54.259Z,50.28
2023-05-04T18:04:08.989Z,51.05
2023-05-04T18:07:22.761Z,49.55
2023-05-04T18:10:35.485Z,52.80
2023-05-04T18:13:43.135Z,60.17
2023-05-04T18:16:51.126Z,60.80
2023-05-04T18:20:00.006Z,51.65
2023-05-04T18:23:15.382Z,56.83
2023-05-04T18:26:25.919Z,74.53
2023-05-04T18:29:33.899Z,64.60
2023-05-04T18:32:42.033Z,66.28
2023-05-04T18:35:48.967Z,66.40
2023-05-04T18:39:00.722Z,59.28
2023-05-04T18:42:08.581Z,55.53
2023-05-04T18:45:18.572Z,59.58
2023-05-04T18:48:25.141Z,68.32
2023-05-04T18:51:30.122Z,68.07
2023-05-04T18:54:35.167Z,69.78
2023-05-04T18:57:39.851Z,68.65
2023-05-04T19:00:53.116Z,65.53
2023-05-04T19:03:57.881Z,71.15
2023-05-04T19:07:02.764Z,68.67
2023-05-04T19:10:08.578Z,72.70
2023-05-04T19:13:13.894Z,68.63
2023-05-04T19:16:19.396Z,66.40
2023-05-04T19:19:24.167Z,70.68
2023-05-04T19:22:28.618Z,69.53
2023-05-04T19:25:35.014Z,64.90
2023-05-04T19:28:45.026Z,68.32
2023-05-04T19:31:52.170Z,66.03
2023-05-04T19:34:57.023Z,61.30
2023-05-04T19:38:07.930Z,62.75
2023-05-04T19:41:12.439Z,63.80
2023-05-04T19:44:17.154Z,68.28
2023-05-04T19:47:21.789Z,65.85
2023-05-04T19:50:26.831Z,67.88
2023-05-04T19:53:34.544Z,63.67
2023-05-04T19:56:39.661Z,69.10
2023-05-04T19:59:47.443Z,65.55
2023-05-04T20:02:52.254Z,69.47
2023-05-04T20:05:57.321Z,81.67
2023-05-04T20:09:02.194Z,68.88
2023-05-04T20:12:07.382Z,65.90
2023-05-04T20:15:15.019Z,70.20
2023-05-04T20:18:20.998Z,68.57
2023-05-04T20:21:25.884Z,70.65
2023-05-04T20:24:38.857Z,68.80
2023-05-04T20:27:44.549Z,72.32
2023-05-04T20:30:51.448Z,76.45
2023-05-04T20:33:56.084Z,73.30
2023-05-04T20:37:00.154Z,73.40
2023-05-04T20:40:05.249Z,78.18
2023-05-04T20:43:10.445Z,72.70
2023-05-04T20:46:17.797Z,83.20
2023-05-04T20:49:25.868Z,75.72
2023-05-04T20:52:32.007Z,82.75
2023-05-04T20:55:41.295Z,74.63
2023-05-04T20:58:49.033Z,77.28
2023-05-04T21:01:54.143Z,72.97
2023-05-04T21:05:01.350Z,77.40
2023-05-04T21:08:07.845Z,75.45
2023-05-04T21:11:14.801Z,75.88
2023-05-04T21:14:20.033Z,74.55
2023-05-04T21:17:28.157Z,74.90
2023-05-04T21:20:35.629Z,76.57
2023-05-04T21:23:40.605Z,71.68
2023-05-04T21:26:46.705Z,70.20
2023-05-04T21:29:54.012Z,75.28
2023-05-04T21:33:01.904Z,80.53
2023-05-04T21:36:30.748Z,76.30
2023-05-04T21:39:35.739Z,83.85
2023-05-04T21:42:40.747Z,83.63
2023-05-04T21:45:49.946Z,85.90
2023-05-04T21:48:57.775Z,82.90
2023-05-04T21:52:04.324Z,83.00
2023-05-04T21:55:09.153Z,72.03
2023-05-04T21:58:13.468Z,72.80
2023-05-04T22:01:51.592Z,72.15
2023-05-04T22:04:56.520Z,76.05
2023-05-04T22:08:01.773Z,116.20
2023-05-04T22:11:07.181Z,119.10
2023-05-04T22:17:16.661Z,115.25
2023-05-04T22:20:24.330Z,112.13
2023-05-04T22:23:31.464Z,74.30
2023-05-04T22:26:36.458Z,72.60
2023-05-04T22:29:43.427Z,75.00
2023-05-04T22:32:48.319Z,80.05
2023-05-04T22:35:59.187Z,88.10
2023-05-04T22:39:33.382Z,76.90
2023-05-04T22:42:37.947Z,80.20
2023-05-04T22:45:44.587Z,90.90
2023-05-04T22:48:51.422Z,73.28
2023-05-04T22:51:58.225Z,87.30
2023-05-04T22:55:02.896Z,88.30
2023-05-04T22:58:07.294Z,82.40
2023-05-04T23:01:12.528Z,90.88
2023-05-04T23:04:17.337Z,224.75
2023-05-04T23:07:22.039Z,93.13
2023-05-04T23:10:26.024Z,92.55
2023-05-04T23:13:33.613Z,103.65
2023-05-04T23:16:38.229Z,89.13
2023-05-04T23:19:42.488Z,81.03
2023-05-04T23:22:47.260Z,76.47
2023-05-04T23:25:52.411Z,86.63
2023-05-04T23:28:59.050Z,96.85
2023-05-04T23:32:03.515Z,79.78
2023-05-04T23:35:10.379Z,96.47
2023-05-04T23:38:16.157Z,90.72
2023-05-04T23:41:20.952Z,82.07
2023-05-04T23:44:24.933Z,77.10
2023-05-04T23:47:28.972Z,110.05
2023-05-04T23:50:33.433Z,79.78
2023-05-04T23:53:42.789Z,84.50
2023-05-04T23:56:49.584Z,76.93
2023-05-04T23:59:54.383Z,76.47
